Archival Weather

Los Angeles Intl

Los Angeles, California (KLAX)

Report from: Thursday, September 21, 2023 6:42 AM PDT
Current time: Saturday, March 2, 2024 2:14 AM PST

Current weather – Weather history – Daily summaries
Weather forecast

Temperature17.8°C (64.0°F)
Dew point15.6°C (60.1°F)
Winds 5 kts (2.6 m/s, 5.8 mph) West (260°)
Visibility9 mi. (14.5 km)
Clouds Scattered clouds 1,000 ft. (305 m)
Ceiling: Broken clouds 2,800 ft. (853 m)
Overcast 4,400 ft. (1,341 m)
Altimeter29.91 in.Hg (1013 mB)
Relative humidity87 %
Density altitude586 ft. (179 m)
Remarks Automated weather observing station with precipitation discriminator
Flight conditions Marginal Visual Meteorological Conditions
Raw dataKLAX 211342Z 26005KT 9SM SCT010 BKN028 OVC044 18/16 A2991 RMK AO2 T01780156
An error has occurred. This application may no longer respond until reloaded. Reload 🗙